sensor_id;sensor_type;location;lat;lon;timestamp;temperature;humidity
41324;DHT22;27073;51.128;4.220;2022-09-02T00:01:51;22.30;73.00
41324;DHT22;27073;51.128;4.220;2022-09-02T00:04:21;22.20;73.10
41324;DHT22;27073;51.128;4.220;2022-09-02T00:06:49;22.20;73.20
41324;DHT22;27073;51.128;4.220;2022-09-02T00:09:17;22.10;73.10
41324;DHT22;27073;51.128;4.220;2022-09-02T00:11:46;22.20;73.80
41324;DHT22;27073;51.128;4.220;2022-09-02T00:14:16;22.10;73.80
41324;DHT22;27073;51.128;4.220;2022-09-02T00:16:42;22.10;73.90
41324;DHT22;27073;51.128;4.220;2022-09-02T00:19:16;22.10;74.50
41324;DHT22;27073;51.128;4.220;2022-09-02T00:21:43;22.10;73.90
41324;DHT22;27073;51.128;4.220;2022-09-02T00:24:09;22.10;74.70
41324;DHT22;27073;51.128;4.220;2022-09-02T00:26:35;22.10;74.50
41324;DHT22;27073;51.128;4.220;2022-09-02T00:29:01;22.00;74.80
41324;DHT22;27073;51.128;4.220;2022-09-02T00:31:27;22.00;75.10
41324;DHT22;27073;51.128;4.220;2022-09-02T00:33:54;22.00;75.30
41324;DHT22;27073;51.128;4.220;2022-09-02T00:36:20;21.90;75.50
41324;DHT22;27073;51.128;4.220;2022-09-02T00:38:46;21.90;75.60
41324;DHT22;27073;51.128;4.220;2022-09-02T00:41:13;21.90;76.20
41324;DHT22;27073;51.128;4.220;2022-09-02T00:43:46;21.80;76.30
41324;DHT22;27073;51.128;4.220;2022-09-02T00:46:16;21.80;76.30
41324;DHT22;27073;51.128;4.220;2022-09-02T00:51:20;21.60;76.90
41324;DHT22;27073;51.128;4.220;2022-09-02T00:53:47;21.60;78.20
41324;DHT22;27073;51.128;4.220;2022-09-02T00:56:20;21.60;77.80
41324;DHT22;27073;51.128;4.220;2022-09-02T00:58:48;21.50;78.70
41324;DHT22;27073;51.128;4.220;2022-09-02T01:01:15;21.60;78.90
41324;DHT22;27073;51.128;4.220;2022-09-02T01:03:41;21.40;78.30
41324;DHT22;27073;51.128;4.220;2022-09-02T01:06:09;21.50;78.80
41324;DHT22;27073;51.128;4.220;2022-09-02T01:08:36;21.50;79.30
41324;DHT22;27073;51.128;4.220;2022-09-02T01:11:04;21.50;79.30
41324;DHT22;27073;51.128;4.220;2022-09-02T01:13:36;21.40;80.20
41324;DHT22;27073;51.128;4.220;2022-09-02T01:16:30;21.30;79.90
41324;DHT22;27073;51.128;4.220;2022-09-02T01:18:59;21.30;80.90
41324;DHT22;27073;51.128;4.220;2022-09-02T01:21:26;21.20;81.40
41324;DHT22;27073;51.128;4.220;2022-09-02T01:23:53;21.10;81.60
41324;DHT22;27073;51.128;4.220;2022-09-02T01:26:20;21.10;82.10
41324;DHT22;27073;51.128;4.220;2022-09-02T01:28:45;21.10;82.40
41324;DHT22;27073;51.128;4.220;2022-09-02T01:31:11;21.00;82.80
41324;DHT22;27073;51.128;4.220;2022-09-02T01:33:38;21.00;83.10
41324;DHT22;27073;51.128;4.220;2022-09-02T01:36:04;21.00;83.30
41324;DHT22;27073;51.128;4.220;2022-09-02T01:38:30;21.00;84.10
41324;DHT22;27073;51.128;4.220;2022-09-02T01:40:56;21.00;83.50
41324;DHT22;27073;51.128;4.220;2022-09-02T01:43:25;21.00;84.10
41324;DHT22;27073;51.128;4.220;2022-09-02T01:45:53;20.90;84.00
41324;DHT22;27073;51.128;4.220;2022-09-02T01:48:22;20.90;84.70
41324;DHT22;27073;51.128;4.220;2022-09-02T01:51:02;20.80;84.80
41324;DHT22;27073;51.128;4.220;2022-09-02T01:53:28;20.70;85.40
41324;DHT22;27073;51.128;4.220;2022-09-02T01:55:56;20.70;85.20
41324;DHT22;27073;51.128;4.220;2022-09-02T01:58:22;20.80;85.50
41324;DHT22;27073;51.128;4.220;2022-09-02T02:00:49;20.80;85.30
41324;DHT22;27073;51.128;4.220;2022-09-02T02:03:15;20.70;85.40
41324;DHT22;27073;51.128;4.220;2022-09-02T02:05:41;20.70;85.90
41324;DHT22;27073;51.128;4.220;2022-09-02T02:08:07;20.60;86.80
41324;DHT22;27073;51.128;4.220;2022-09-02T02:10:34;20.60;86.90
41324;DHT22;27073;51.128;4.220;2022-09-02T02:13:00;20.50;87.10
41324;DHT22;27073;51.128;4.220;2022-09-02T02:15:30;20.50;88.00
41324;DHT22;27073;51.128;4.220;2022-09-02T02:17:55;20.50;88.00
41324;DHT22;27073;51.128;4.220;2022-09-02T02:20:22;20.40;88.00
41324;DHT22;27073;51.128;4.220;2022-09-02T02:22:48;20.40;88.70
41324;DHT22;27073;51.128;4.220;2022-09-02T02:25:15;20.40;88.60
41324;DHT22;27073;51.128;4.220;2022-09-02T02:27:42;20.30;89.20
41324;DHT22;27073;51.128;4.220;2022-09-02T02:30:11;20.20;89.80
41324;DHT22;27073;51.128;4.220;2022-09-02T02:32:37;20.10;90.00
41324;DHT22;27073;51.128;4.220;2022-09-02T02:35:03;20.10;90.20
41324;DHT22;27073;51.128;4.220;2022-09-02T02:37:31;20.30;89.70
41324;DHT22;27073;51.128;4.220;2022-09-02T02:39:57;20.30;89.60
41324;DHT22;27073;51.128;4.220;2022-09-02T02:42:25;20.20;90.00
41324;DHT22;27073;51.128;4.220;2022-09-02T02:44:51;20.00;90.40
41324;DHT22;27073;51.128;4.220;2022-09-02T02:47:17;20.10;90.30
41324;DHT22;27073;51.128;4.220;2022-09-02T02:49:43;20.10;90.10
41324;DHT22;27073;51.128;4.220;2022-09-02T02:52:10;20.10;90.70
41324;DHT22;27073;51.128;4.220;2022-09-02T02:54:37;20.10;90.50
41324;DHT22;27073;51.128;4.220;2022-09-02T02:57:05;20.10;90.90
41324;DHT22;27073;51.128;4.220;2022-09-02T02:59:31;20.10;90.60
41324;DHT22;27073;51.128;4.220;2022-09-02T03:01:57;20.00;90.90
41324;DHT22;27073;51.128;4.220;2022-09-02T03:04:23;20.10;91.00
41324;DHT22;27073;51.128;4.220;2022-09-02T03:06:50;20.00;90.70
41324;DHT22;27073;51.128;4.220;2022-09-02T03:09:17;20.00;91.20
41324;DHT22;27073;51.128;4.220;2022-09-02T03:11:45;20.10;90.90
41324;DHT22;27073;51.128;4.220;2022-09-02T03:14:11;19.90;91.20
41324;DHT22;27073;51.128;4.220;2022-09-02T03:16:37;19.90;91.30
41324;DHT22;27073;51.128;4.220;2022-09-02T03:19:03;19.90;91.40
41324;DHT22;27073;51.128;4.220;2022-09-02T03:21:30;20.00;91.40
41324;DHT22;27073;51.128;4.220;2022-09-02T03:23:56;19.90;91.50
41324;DHT22;27073;51.128;4.220;2022-09-02T03:26:23;19.90;91.70
41324;DHT22;27073;51.128;4.220;2022-09-02T03:28:53;19.80;91.90
41324;DHT22;27073;51.128;4.220;2022-09-02T03:31:23;19.70;92.30
41324;DHT22;27073;51.128;4.220;2022-09-02T03:33:49;19.60;92.40
41324;DHT22;27073;51.128;4.220;2022-09-02T03:36:31;19.60;92.50
41324;DHT22;27073;51.128;4.220;2022-09-02T03:38:59;19.70;92.60
41324;DHT22;27073;51.128;4.220;2022-09-02T03:41:27;19.60;92.40
41324;DHT22;27073;51.128;4.220;2022-09-02T03:43:54;19.70;92.60
41324;DHT22;27073;51.128;4.220;2022-09-02T03:46:20;19.70;92.60
41324;DHT22;27073;51.128;4.220;2022-09-02T03:48:47;19.70;92.60
41324;DHT22;27073;51.128;4.220;2022-09-02T03:51:18;19.80;92.60
41324;DHT22;27073;51.128;4.220;2022-09-02T03:53:45;19.90;92.50
41324;DHT22;27073;51.128;4.220;2022-09-02T03:56:12;19.80;92.40
41324;DHT22;27073;51.128;4.220;2022-09-02T03:58:41;19.80;92.60
41324;DHT22;27073;51.128;4.220;2022-09-02T04:01:11;19.90;92.60
41324;DHT22;27073;51.128;4.220;2022-09-02T04:03:38;19.90;92.70
41324;DHT22;27073;51.128;4.220;2022-09-02T04:06:03;19.80;92.80
41324;DHT22;27073;51.128;4.220;2022-09-02T04:08:30;19.70;92.90
41324;DHT22;27073;51.128;4.220;2022-09-02T04:11:04;19.70;92.90
41324;DHT22;27073;51.128;4.220;2022-09-02T04:13:30;19.60;93.30
41324;DHT22;27073;51.128;4.220;2022-09-02T04:15:56;19.60;93.50
41324;DHT22;27073;51.128;4.220;2022-09-02T04:18:23;19.50;93.80
41324;DHT22;27073;51.128;4.220;2022-09-02T04:20:51;19.50;94.00
41324;DHT22;27073;51.128;4.220;2022-09-02T04:23:18;19.50;93.90
41324;DHT22;27073;51.128;4.220;2022-09-02T04:25:45;19.60;93.80
41324;DHT22;27073;51.128;4.220;2022-09-02T04:28:13;19.50;94.20
41324;DHT22;27073;51.128;4.220;2022-09-02T04:30:41;19.50;94.10
41324;DHT22;27073;51.128;4.220;2022-09-02T04:33:08;19.50;94.20
41324;DHT22;27073;51.128;4.220;2022-09-02T04:35:34;19.40;94.30
41324;DHT22;27073;51.128;4.220;2022-09-02T04:38:01;19.30;94.60
41324;DHT22;27073;51.128;4.220;2022-09-02T04:40:28;19.30;94.50
41324;DHT22;27073;51.128;4.220;2022-09-02T04:42:54;19.30;94.90
41324;DHT22;27073;51.128;4.220;2022-09-02T04:45:20;19.30;95.00
41324;DHT22;27073;51.128;4.220;2022-09-02T04:47:46;19.30;94.80
41324;DHT22;27073;51.128;4.220;2022-09-02T04:50:14;19.30;95.00
41324;DHT22;27073;51.128;4.220;2022-09-02T04:52:56;19.30;94.70
41324;DHT22;27073;51.128;4.220;2022-09-02T04:55:22;19.30;95.00
41324;DHT22;27073;51.128;4.220;2022-09-02T04:57:48;19.40;94.90
41324;DHT22;27073;51.128;4.220;2022-09-02T05:00:14;19.40;94.90
41324;DHT22;27073;51.128;4.220;2022-09-02T05:02:40;19.40;94.90
41324;DHT22;27073;51.128;4.220;2022-09-02T05:05:07;19.40;94.80
41324;DHT22;27073;51.128;4.220;2022-09-02T05:07:38;19.40;95.00
41324;DHT22;27073;51.128;4.220;2022-09-02T05:10:05;19.40;95.00
41324;DHT22;27073;51.128;4.220;2022-09-02T05:12:34;19.40;95.10
41324;DHT22;27073;51.128;4.220;2022-09-02T05:15:01;19.30;95.40
41324;DHT22;27073;51.128;4.220;2022-09-02T05:17:29;19.30;95.30
41324;DHT22;27073;51.128;4.220;2022-09-02T05:19:58;19.30;95.20
41324;DHT22;27073;51.128;4.220;2022-09-02T05:22:23;19.30;95.40
41324;DHT22;27073;51.128;4.220;2022-09-02T05:24:55;19.20;95.60
41324;DHT22;27073;51.128;4.220;2022-09-02T05:27:21;19.20;95.60
41324;DHT22;27073;51.128;4.220;2022-09-02T05:29:48;19.20;95.80
41324;DHT22;27073;51.128;4.220;2022-09-02T05:32:18;19.40;95.70
41324;DHT22;27073;51.128;4.220;2022-09-02T05:34:46;19.30;95.50
41324;DHT22;27073;51.128;4.220;2022-09-02T05:37:12;19.40;95.80
41324;DHT22;27073;51.128;4.220;2022-09-02T05:39:38;19.30;95.80
41324;DHT22;27073;51.128;4.220;2022-09-02T05:42:05;19.30;95.90
41324;DHT22;27073;51.128;4.220;2022-09-02T05:44:32;19.30;95.80
41324;DHT22;27073;51.128;4.220;2022-09-02T05:47:00;19.40;96.00
41324;DHT22;27073;51.128;4.220;2022-09-02T05:49:27;19.20;96.50
41324;DHT22;27073;51.128;4.220;2022-09-02T05:51:59;19.20;96.20
41324;DHT22;27073;51.128;4.220;2022-09-02T05:54:38;19.20;96.50
41324;DHT22;27073;51.128;4.220;2022-09-02T05:57:10;19.20;96.80
41324;DHT22;27073;51.128;4.220;2022-09-02T05:59:40;19.00;96.80
41324;DHT22;27073;51.128;4.220;2022-09-02T06:02:10;19.20;97.00
41324;DHT22;27073;51.128;4.220;2022-09-02T06:04:45;19.20;96.90
41324;DHT22;27073;51.128;4.220;2022-09-02T06:07:14;19.20;97.10
41324;DHT22;27073;51.128;4.220;2022-09-02T06:09:43;19.20;96.70
41324;DHT22;27073;51.128;4.220;2022-09-02T06:12:11;19.30;96.80
41324;DHT22;27073;51.128;4.220;2022-09-02T06:14:38;19.30;96.70
41324;DHT22;27073;51.128;4.220;2022-09-02T06:17:07;19.40;97.10
41324;DHT22;27073;51.128;4.220;2022-09-02T06:19:39;19.40;97.00
41324;DHT22;27073;51.128;4.220;2022-09-02T06:22:06;19.50;97.00
41324;DHT22;27073;51.128;4.220;2022-09-02T06:24:35;19.50;96.70
41324;DHT22;27073;51.128;4.220;2022-09-02T06:27:06;19.60;96.70
41324;DHT22;27073;51.128;4.220;2022-09-02T06:29:34;19.60;96.90
41324;DHT22;27073;51.128;4.220;2022-09-02T06:32:00;19.70;97.20
41324;DHT22;27073;51.128;4.220;2022-09-02T06:34:26;19.70;97.10
41324;DHT22;27073;51.128;4.220;2022-09-02T06:36:54;19.80;97.10
41324;DHT22;27073;51.128;4.220;2022-09-02T06:39:22;19.90;97.00
41324;DHT22;27073;51.128;4.220;2022-09-02T06:41:51;20.00;96.80
41324;DHT22;27073;51.128;4.220;2022-09-02T06:44:19;20.10;96.80
41324;DHT22;27073;51.128;4.220;2022-09-02T06:46:57;20.10;97.00
41324;DHT22;27073;51.128;4.220;2022-09-02T06:49:26;20.20;96.80
41324;DHT22;27073;51.128;4.220;2022-09-02T06:51:55;20.20;96.40
41324;DHT22;27073;51.128;4.220;2022-09-02T06:54:26;20.20;96.90
41324;DHT22;27073;51.128;4.220;2022-09-02T06:57:03;20.10;96.80
41324;DHT22;27073;51.128;4.220;2022-09-02T06:59:29;20.20;96.90
41324;DHT22;27073;51.128;4.220;2022-09-02T07:01:57;20.20;96.90
41324;DHT22;27073;51.128;4.220;2022-09-02T07:04:23;20.20;96.50
41324;DHT22;27073;51.128;4.220;2022-09-02T07:07:11;20.20;96.60
41324;DHT22;27073;51.128;4.220;2022-09-02T07:09:44;20.40;96.50
41324;DHT22;27073;51.128;4.220;2022-09-02T07:12:14;20.50;96.60
41324;DHT22;27073;51.128;4.220;2022-09-02T07:14:47;20.50;96.60
41324;DHT22;27073;51.128;4.220;2022-09-02T07:17:19;20.50;96.20
41324;DHT22;27073;51.128;4.220;2022-09-02T07:19:51;20.60;96.60
41324;DHT22;27073;51.128;4.220;2022-09-02T07:22:20;20.60;96.70
41324;DHT22;27073;51.128;4.220;2022-09-02T07:24:46;20.70;96.40
41324;DHT22;27073;51.128;4.220;2022-09-02T07:27:12;20.50;96.50
41324;DHT22;27073;51.128;4.220;2022-09-02T07:29:40;20.50;96.80
41324;DHT22;27073;51.128;4.220;2022-09-02T07:32:10;20.60;97.10
41324;DHT22;27073;51.128;4.220;2022-09-02T07:34:36;20.80;96.80
41324;DHT22;27073;51.128;4.220;2022-09-02T07:37:02;20.80;97.20
41324;DHT22;27073;51.128;4.220;2022-09-02T07:39:28;20.80;96.90
41324;DHT22;27073;51.128;4.220;2022-09-02T07:41:54;20.80;97.00
41324;DHT22;27073;51.128;4.220;2022-09-02T07:44:21;21.00;96.90
41324;DHT22;27073;51.128;4.220;2022-09-02T07:46:49;21.10;96.90
41324;DHT22;27073;51.128;4.220;2022-09-02T07:49:18;21.10;96.60
41324;DHT22;27073;51.128;4.220;2022-09-02T07:51:49;21.30;97.00
41324;DHT22;27073;51.128;4.220;2022-09-02T07:54:19;21.30;96.70
41324;DHT22;27073;51.128;4.220;2022-09-02T07:56:47;21.50;96.70
41324;DHT22;27073;51.128;4.220;2022-09-02T07:59:16;21.60;96.70
41324;DHT22;27073;51.128;4.220;2022-09-02T08:01:43;21.60;96.80
41324;DHT22;27073;51.128;4.220;2022-09-02T08:04:09;21.60;96.60
41324;DHT22;27073;51.128;4.220;2022-09-02T08:06:35;21.70;96.50
41324;DHT22;27073;51.128;4.220;2022-09-02T08:09:08;21.60;96.60
41324;DHT22;27073;51.128;4.220;2022-09-02T08:11:37;21.60;96.50
41324;DHT22;27073;51.128;4.220;2022-09-02T08:14:08;21.70;96.90
41324;DHT22;27073;51.128;4.220;2022-09-02T08:16:34;21.60;96.50
41324;DHT22;27073;51.128;4.220;2022-09-02T08:19:00;21.60;96.40
41324;DHT22;27073;51.128;4.220;2022-09-02T08:21:26;21.60;96.40
41324;DHT22;27073;51.128;4.220;2022-09-02T08:23:52;21.80;96.20
41324;DHT22;27073;51.128;4.220;2022-09-02T08:26:17;21.80;96.00
41324;DHT22;27073;51.128;4.220;2022-09-02T08:28:44;21.90;96.40
41324;DHT22;27073;51.128;4.220;2022-09-02T08:31:11;22.00;96.10
41324;DHT22;27073;51.128;4.220;2022-09-02T08:33:37;22.00;96.20
41324;DHT22;27073;51.128;4.220;2022-09-02T08:36:07;22.10;96.10
41324;DHT22;27073;51.128;4.220;2022-09-02T08:38:35;22.10;96.00
41324;DHT22;27073;51.128;4.220;2022-09-02T08:41:01;22.20;95.80
41324;DHT22;27073;51.128;4.220;2022-09-02T08:43:34;22.20;95.80
41324;DHT22;27073;51.128;4.220;2022-09-02T08:46:05;22.20;96.10
41324;DHT22;27073;51.128;4.220;2022-09-02T08:51:22;22.30;95.90
41324;DHT22;27073;51.128;4.220;2022-09-02T08:53:56;22.40;95.70
41324;DHT22;27073;51.128;4.220;2022-09-02T08:56:23;22.50;95.60
41324;DHT22;27073;51.128;4.220;2022-09-02T08:58:51;22.60;95.60
41324;DHT22;27073;51.128;4.220;2022-09-02T09:17:50;23.00;95.10
41324;DHT22;27073;51.128;4.220;2022-09-02T09:20:20;23.20;94.70
41324;DHT22;27073;51.128;4.220;2022-09-02T09:22:50;23.30;94.90
41324;DHT22;27073;51.128;4.220;2022-09-02T09:25:17;23.40;94.70
41324;DHT22;27073;51.128;4.220;2022-09-02T09:27:44;23.40;95.00
41324;DHT22;27073;51.128;4.220;2022-09-02T09:30:11;23.40;95.30
41324;DHT22;27073;51.128;4.220;2022-09-02T09:32:50;23.40;94.90
41324;DHT22;27073;51.128;4.220;2022-09-02T09:35:17;23.50;94.70
41324;DHT22;27073;51.128;4.220;2022-09-02T09:37:48;23.60;94.70
41324;DHT22;27073;51.128;4.220;2022-09-02T09:40:30;23.70;95.10
41324;DHT22;27073;51.128;4.220;2022-09-02T09:50:47;24.00;94.30
41324;DHT22;27073;51.128;4.220;2022-09-02T09:53:18;24.00;94.30
41324;DHT22;27073;51.128;4.220;2022-09-02T09:56:00;24.00;94.10
41324;DHT22;27073;51.128;4.220;2022-09-02T09:58:47;24.00;94.20
41324;DHT22;27073;51.128;4.220;2022-09-02T10:03:50;24.20;94.10
41324;DHT22;27073;51.128;4.220;2022-09-02T10:06:21;24.20;94.10
41324;DHT22;27073;51.128;4.220;2022-09-02T10:11:22;24.40;93.90
41324;DHT22;27073;51.128;4.220;2022-09-02T10:13:48;24.40;93.70
41324;DHT22;27073;51.128;4.220;2022-09-02T10:19:10;24.50;93.70
41324;DHT22;27073;51.128;4.220;2022-09-02T10:24:19;24.80;93.80
41324;DHT22;27073;51.128;4.220;2022-09-02T10:26:53;25.00;93.60
41324;DHT22;27073;51.128;4.220;2022-09-02T10:37:20;25.30;93.10
41324;DHT22;27073;51.128;4.220;2022-09-02T10:45:57;25.60;92.20
41324;DHT22;27073;51.128;4.220;2022-09-02T10:51:37;25.60;93.00
41324;DHT22;27073;51.128;4.220;2022-09-02T10:57:28;25.70;92.40
41324;DHT22;27073;51.128;4.220;2022-09-02T11:00:19;25.80;92.50
41324;DHT22;27073;51.128;4.220;2022-09-02T11:05:21;26.00;92.50
41324;DHT22;27073;51.128;4.220;2022-09-02T11:08:00;26.20;92.40
41324;DHT22;27073;51.128;4.220;2022-09-02T11:10:36;26.20;91.80
41324;DHT22;27073;51.128;4.220;2022-09-02T11:13:14;26.30;91.50
41324;DHT22;27073;51.128;4.220;2022-09-02T11:18:53;26.50;91.30
41324;DHT22;27073;51.128;4.220;2022-09-02T11:24:18;26.40;91.40
41324;DHT22;27073;51.128;4.220;2022-09-02T11:27:08;26.40;91.50
41324;DHT22;27073;51.128;4.220;2022-09-02T11:29:46;26.60;91.10
41324;DHT22;27073;51.128;4.220;2022-09-02T11:35:34;26.80;89.30
41324;DHT22;27073;51.128;4.220;2022-09-02T11:38:21;26.80;90.10
41324;DHT22;27073;51.128;4.220;2022-09-02T11:41:23;26.90;89.10
41324;DHT22;27073;51.128;4.220;2022-09-02T11:44:13;27.10;88.90
41324;DHT22;27073;51.128;4.220;2022-09-02T11:55:54;27.60;86.90
41324;DHT22;27073;51.128;4.220;2022-09-02T12:06:20;27.70;83.90
41324;DHT22;27073;51.128;4.220;2022-09-02T12:14:09;27.90;84.70
41324;DHT22;27073;51.128;4.220;2022-09-02T12:16:57;28.10;84.20
41324;DHT22;27073;51.128;4.220;2022-09-02T12:19:38;28.10;83.90
41324;DHT22;27073;51.128;4.220;2022-09-02T12:24:59;28.30;82.00
41324;DHT22;27073;51.128;4.220;2022-09-02T12:29:57;28.80;81.70
41324;DHT22;27073;51.128;4.220;2022-09-02T12:35:17;29.10;81.10
41324;DHT22;27073;51.128;4.220;2022-09-02T12:38:16;29.20;78.70
41324;DHT22;27073;51.128;4.220;2022-09-02T12:52:03;28.70;77.50
41324;DHT22;27073;51.128;4.220;2022-09-02T12:57:06;28.80;77.40
41324;DHT22;27073;51.128;4.220;2022-09-02T12:59:34;29.10;77.50
41324;DHT22;27073;51.128;4.220;2022-09-02T13:02:34;29.40;77.10
41324;DHT22;27073;51.128;4.220;2022-09-02T13:05:20;29.70;77.00
41324;DHT22;27073;51.128;4.220;2022-09-02T13:08:10;30.00;75.60
41324;DHT22;27073;51.128;4.220;2022-09-02T13:24:17;29.60;74.20
41324;DHT22;27073;51.128;4.220;2022-09-02T13:32:23;30.20;71.70
41324;DHT22;27073;51.128;4.220;2022-09-02T13:34:52;30.40;72.60
41324;DHT22;27073;51.128;4.220;2022-09-02T13:37:37;30.40;71.50
41324;DHT22;27073;51.128;4.220;2022-09-02T13:40:06;30.60;71.80
41324;DHT22;27073;51.128;4.220;2022-09-02T13:42:50;30.70;71.70
41324;DHT22;27073;51.128;4.220;2022-09-02T13:45:19;30.80;70.40
41324;DHT22;27073;51.128;4.220;2022-09-02T13:47:47;30.90;70.50
41324;DHT22;27073;51.128;4.220;2022-09-02T13:50:16;30.90;69.40
41324;DHT22;27073;51.128;4.220;2022-09-02T13:52:45;30.60;69.30
41324;DHT22;27073;51.128;4.220;2022-09-02T13:55:13;30.30;70.60
41324;DHT22;27073;51.128;4.220;2022-09-02T13:57:46;30.30;69.60
41324;DHT22;27073;51.128;4.220;2022-09-02T14:00:15;30.30;68.90
41324;DHT22;27073;51.128;4.220;2022-09-02T14:03:38;30.60;69.30
41324;DHT22;27073;51.128;4.220;2022-09-02T14:05:49;30.90;69.10
41324;DHT22;27073;51.128;4.220;2022-09-02T14:08:19;31.20;67.50
41324;DHT22;27073;51.128;4.220;2022-09-02T14:10:46;31.50;68.10
41324;DHT22;27073;51.128;4.220;2022-09-02T14:13:14;31.50;68.20
41324;DHT22;27073;51.128;4.220;2022-09-02T14:15:41;31.70;67.80
41324;DHT22;27073;51.128;4.220;2022-09-02T14:21:02;31.60;67.10
41324;DHT22;27073;51.128;4.220;2022-09-02T14:23:31;31.20;65.20
41324;DHT22;27073;51.128;4.220;2022-09-02T14:26:01;31.20;66.90
41324;DHT22;27073;51.128;4.220;2022-09-02T14:28:32;30.80;65.70
41324;DHT22;27073;51.128;4.220;2022-09-02T14:31:02;31.00;66.80
41324;DHT22;27073;51.128;4.220;2022-09-02T14:33:38;31.00;66.30
41324;DHT22;27073;51.128;4.220;2022-09-02T14:36:33;31.10;66.40
41324;DHT22;27073;51.128;4.220;2022-09-02T14:39:15;31.00;66.50
41324;DHT22;27073;51.128;4.220;2022-09-02T14:41:51;32.40;65.80
41324;DHT22;27073;51.128;4.220;2022-09-02T14:44:33;34.30;64.40
41324;DHT22;27073;51.128;4.220;2022-09-02T14:47:03;35.50;62.70
41324;DHT22;27073;51.128;4.220;2022-09-02T14:49:50;34.70;61.90
41324;DHT22;27073;51.128;4.220;2022-09-02T14:52:28;33.90;61.80
41324;DHT22;27073;51.128;4.220;2022-09-02T14:54:56;33.10;61.40
41324;DHT22;27073;51.128;4.220;2022-09-02T14:57:30;33.40;62.60
41324;DHT22;27073;51.128;4.220;2022-09-02T15:00:01;35.00;61.60
41324;DHT22;27073;51.128;4.220;2022-09-02T15:02:32;35.70;60.20
41324;DHT22;27073;51.128;4.220;2022-09-02T15:05:00;35.20;59.80
41324;DHT22;27073;51.128;4.220;2022-09-02T15:07:26;34.80;60.30
41324;DHT22;27073;51.128;4.220;2022-09-02T15:09:53;34.40;59.50
41324;DHT22;27073;51.128;4.220;2022-09-02T15:12:21;34.10;60.20
41324;DHT22;27073;51.128;4.220;2022-09-02T15:14:52;35.10;60.30
41324;DHT22;27073;51.128;4.220;2022-09-02T15:17:18;35.70;59.50
41324;DHT22;27073;51.128;4.220;2022-09-02T15:19:45;36.90;58.80
41324;DHT22;27073;51.128;4.220;2022-09-02T15:22:11;37.10;59.00
41324;DHT22;27073;51.128;4.220;2022-09-02T15:24:36;35.80;56.80
41324;DHT22;27073;51.128;4.220;2022-09-02T15:27:02;36.40;56.90
41324;DHT22;27073;51.128;4.220;2022-09-02T15:29:28;38.00;56.00
41324;DHT22;27073;51.128;4.220;2022-09-02T15:31:54;38.60;56.00
41324;DHT22;27073;51.128;4.220;2022-09-02T15:34:20;39.40;54.70
41324;DHT22;27073;51.128;4.220;2022-09-02T15:36:46;39.90;54.40
41324;DHT22;27073;51.128;4.220;2022-09-02T15:39:12;39.50;52.40
41324;DHT22;27073;51.128;4.220;2022-09-02T15:41:38;38.20;53.20
41324;DHT22;27073;51.128;4.220;2022-09-02T15:44:05;38.00;53.70
41324;DHT22;27073;51.128;4.220;2022-09-02T15:46:34;37.60;53.90
41324;DHT22;27073;51.128;4.220;2022-09-02T15:49:04;36.80;54.50
41324;DHT22;27073;51.128;4.220;2022-09-02T15:51:31;35.80;54.50
41324;DHT22;27073;51.128;4.220;2022-09-02T15:54:05;35.20;55.40
41324;DHT22;27073;51.128;4.220;2022-09-02T15:56:32;35.10;54.10
41324;DHT22;27073;51.128;4.220;2022-09-02T15:59:01;34.70;56.00
41324;DHT22;27073;51.128;4.220;2022-09-02T16:01:30;34.40;55.90
41324;DHT22;27073;51.128;4.220;2022-09-02T16:03:56;33.90;55.90
41324;DHT22;27073;51.128;4.220;2022-09-02T16:06:23;33.60;56.20
41324;DHT22;27073;51.128;4.220;2022-09-02T16:08:50;33.30;55.90
41324;DHT22;27073;51.128;4.220;2022-09-02T16:11:16;32.70;56.00
41324;DHT22;27073;51.128;4.220;2022-09-02T16:13:42;32.30;55.60
41324;DHT22;27073;51.128;4.220;2022-09-02T16:16:09;32.00;55.70
41324;DHT22;27073;51.128;4.220;2022-09-02T16:18:37;31.80;57.70
41324;DHT22;27073;51.128;4.220;2022-09-02T16:21:08;31.50;57.10
41324;DHT22;27073;51.128;4.220;2022-09-02T16:23:34;31.10;57.70
41324;DHT22;27073;51.128;4.220;2022-09-02T16:26:07;31.20;59.00
41324;DHT22;27073;51.128;4.220;2022-09-02T16:28:35;31.30;57.70
41324;DHT22;27073;51.128;4.220;2022-09-02T16:31:02;31.40;59.10
41324;DHT22;27073;51.128;4.220;2022-09-02T16:33:28;31.40;57.80
41324;DHT22;27073;51.128;4.220;2022-09-02T16:35:53;31.30;58.20
41324;DHT22;27073;51.128;4.220;2022-09-02T16:38:19;31.20;58.50
41324;DHT22;27073;51.128;4.220;2022-09-02T16:40:49;31.20;59.50
41324;DHT22;27073;51.128;4.220;2022-09-02T16:43:16;31.00;59.40
41324;DHT22;27073;51.128;4.220;2022-09-02T16:45:43;30.90;59.50
41324;DHT22;27073;51.128;4.220;2022-09-02T16:48:11;30.80;58.70
41324;DHT22;27073;51.128;4.220;2022-09-02T16:50:36;30.20;58.90
41324;DHT22;27073;51.128;4.220;2022-09-02T16:53:02;30.10;59.80
41324;DHT22;27073;51.128;4.220;2022-09-02T16:55:28;30.00;60.00
41324;DHT22;27073;51.128;4.220;2022-09-02T16:57:56;30.00;59.40
41324;DHT22;27073;51.128;4.220;2022-09-02T17:00:25;30.00;59.70
41324;DHT22;27073;51.128;4.220;2022-09-02T17:02:51;29.90;59.60
41324;DHT22;27073;51.128;4.220;2022-09-02T17:05:17;29.60;59.70
41324;DHT22;27073;51.128;4.220;2022-09-02T17:07:43;29.40;60.30
41324;DHT22;27073;51.128;4.220;2022-09-02T17:10:10;29.20;60.50
41324;DHT22;27073;51.128;4.220;2022-09-02T17:12:36;29.20;60.30
41324;DHT22;27073;51.128;4.220;2022-09-02T17:15:02;29.30;60.40
41324;DHT22;27073;51.128;4.220;2022-09-02T17:17:28;29.40;60.70
41324;DHT22;27073;51.128;4.220;2022-09-02T17:19:53;29.40;60.80
41324;DHT22;27073;51.128;4.220;2022-09-02T17:22:19;29.40;61.00
41324;DHT22;27073;51.128;4.220;2022-09-02T17:24:45;29.40;60.70
41324;DHT22;27073;51.128;4.220;2022-09-02T17:27:11;29.30;60.60
41324;DHT22;27073;51.128;4.220;2022-09-02T17:29:36;28.90;61.00
41324;DHT22;27073;51.128;4.220;2022-09-02T17:32:03;28.80;61.30
41324;DHT22;27073;51.128;4.220;2022-09-02T17:34:29;28.80;61.50
41324;DHT22;27073;51.128;4.220;2022-09-02T17:36:57;28.80;61.10
41324;DHT22;27073;51.128;4.220;2022-09-02T17:39:23;28.80;61.10
41324;DHT22;27073;51.128;4.220;2022-09-02T17:41:49;28.70;61.40
41324;DHT22;27073;51.128;4.220;2022-09-02T17:44:32;28.50;61.80
41324;DHT22;27073;51.128;4.220;2022-09-02T17:49:31;28.30;62.70
41324;DHT22;27073;51.128;4.220;2022-09-02T17:51:58;28.40;62.00
41324;DHT22;27073;51.128;4.220;2022-09-02T17:54:25;28.30;62.30
41324;DHT22;27073;51.128;4.220;2022-09-02T17:57:07;28.20;63.10
41324;DHT22;27073;51.128;4.220;2022-09-02T18:10:51;27.80;63.40
41324;DHT22;27073;51.128;4.220;2022-09-02T18:13:22;27.60;63.60
41324;DHT22;27073;51.128;4.220;2022-09-02T18:16:03;27.60;63.20
41324;DHT22;27073;51.128;4.220;2022-09-02T18:18:39;27.60;63.50